Terminal Aerodrome Forecast
Issued by NWS Blacksburg, VA

Home | Current Version | Previous Version | Text Only | Print | Product List | Glossary On
Versions: 1 2 3 4 5 6 7 8 9 10 11 12 13 14 15 16 17 18 19 20 21 22 23 24
000
FTUS41 KRNK 211140
TAFDAN
TAF
KDAN 211140Z 2112/2212 00000KT P6SM OVC060
     FM211600 05003KT P6SM SCT060
     FM220300 05005KT P6SM OVC050
     FM220700 04006KT 6SM -RA OVC025
     FM221000 04007KT 5SM -RA BR OVC015=

USA.gov is the U.S. government's official web portal to all federal, state and local government web resources and services.